Metar Cercanos

 

LEPA - Palma De Mallorc, Spain
Distance from station: ONO 38km
Actualización: 24/10/2017 04:00
Few Clouds
Few Clouds
 Viento del varies
Viento: varies 2 km/h
Temperatura: 10°C
Rocío: 10°C
Humedad: 100%
Barómetro: 1024 hPa
Clouds: Few Clouds
Visibility: 10 km
Cloud details: Few Clouds 914 m
2017/10/24 02:00 LEPA 240200Z VRB01KT 9999 FEW030 10/10 Q1024 NOSIG
LEMH - Mahon/Menorca Is, Spain
Distance from station: ENE 105km
Actualización: 24/10/2017 04:00
Few Clouds
Few Clouds
 Viento del ONO
Viento: ONO 6 km/h
Temperatura: 15°C
Rocío: 12°C
Humedad: 82%
Barómetro: 1023 hPa
Clouds: Few Clouds
Visibility: 10 km
Cloud details: Few Clouds 1036 m
2017/10/24 02:00 LEMH 240200Z AUTO 30003KT 270V340 9999 FEW034/// 15/12 Q1023
 
LEIB - Ibiza/Es Codola, Spain
Distance from station: OSO 165km
Actualización: 24/10/2017 04:00
Despejado
Despejado
 Viento del calm
Viento: Calma
Temperatura: 14°C
Rocío: 12°C
Humedad: 88%
Barómetro: 1024 hPa
Resumen: Despejado
Visibility: greater than 10 km
2017/10/24 02:00 LEIB 240200Z 00000KT CAVOK 14/12 Q1024 NOSIG
LEBL - Barcelona Airpor, Spain
Distance from station: NNO 225km
Actualización: 24/10/2017 04:00
Despejado
Despejado
 Viento del NNO
Viento: NNO 17 km/h
Temperatura: 14°C
Rocío: 9°C
Humedad: 72%
Barómetro: 1024 hPa
Resumen: Despejado
Visibility: greater than 10 km
2017/10/24 02:00 LEBL 240200Z 33009KT CAVOK 14/09 Q1024 NOSIG
 
LEVC - Valencia (civ/Mi, Spain
Distance from station: NO 188km
Actualización: 24/10/2017 04:00
Despejado
Despejado
 Viento del varies
Viento: varies 2 km/h
Temperatura: 13°C
Rocío: 12°C
Humedad: 94%
Barómetro: 1024 hPa
Resumen: Despejado
Visibility: greater than 10 km
2017/10/24 02:00 LEVC 240200Z VRB01KT CAVOK 13/12 Q1024 NOSIG
LEGE - Gerona/Costa Bra, Spain
Distance from station: N 276km
Actualización: 24/10/2017 04:00
Despejado
Despejado
 Viento del calm
Viento: Calma
Temperatura: 10°C
Rocío: 9°C
Humedad: 94%
Barómetro: 1024 hPa
Resumen: Despejado
Visibility: greater than 10 km
2017/10/24 02:00 LEGE 240200Z 00000KT CAVOK 10/09 Q1024
 
LEAL - Alicante/El Alte, Spain
Distance from station: OSO 344km
Actualización: 24/10/2017 04:00
Few Clouds
Few Clouds
 Viento del O
Viento: O 6 km/h
Temperatura: 16°C
Rocío: 14°C
Humedad: 88%
Barómetro: 1024 hPa
Clouds: Few Clouds
Visibility: 10 km
Cloud details: Few Clouds 914 m
2017/10/24 02:00 LEAL 240200Z 27003KT 9999 FEW030 16/14 Q1024 NOSIG
LEAM - Almeria Airport, Spain
Distance from station: SSO 56km
Actualización: 24/10/2017 04:00
Despejado
Despejado
 Viento del N
Viento: N 6 km/h
Temperatura: 18°C
Rocío: 16°C
Humedad: 88%
Barómetro: 1023 hPa
Clouds: Despejado
Visibility: 10 km
2017/10/24 02:00 LEAM 240200Z AUTO 36003KT 9999 NCD 18/16 Q1023
 
LEZG - Zaragoza (mil/Ci, Spain
Distance from station: NO 431km
Actualización: 24/10/2017 04:00
Despejado
Despejado
 Viento del O
Viento: O 19 km/h
Temperatura: 14°C
Rocío: 4°C
Humedad: 51%
Barómetro: 1025 hPa
Resumen: Despejado
Visibility: greater than 10 km
2017/10/24 02:00 LEZG 240200Z 26010KT CAVOK 14/04 Q1025
LEMD - Madrid/Barajas, Spain
Distance from station: ONO 234km
Actualización: 24/10/2017 04:00
Despejado
Despejado
 Viento del N
Viento: N 6 km/h
Temperatura: 9°C
Rocío: 5°C
Humedad: 76%
Barómetro: 1026 hPa
Resumen: Despejado
Visibility: greater than 10 km
2017/10/24 02:00 LEMD 240200Z 36003KT CAVOK 09/05 Q1026 NOSIG
 
LEGR - Granada Airport, Spain
Distance from station: OSO 62km
Actualización: 24/10/2017 04:00
Despejado
Despejado
 Viento del calm
Viento: Calma
Temperatura: 12°C
Rocío: 11°C
Humedad: 94%
Barómetro: 1025 hPa
Clouds: Despejado
Visibility: 8 km
2017/10/24 02:00 LEGR 240200Z AUTO 00000KT 8000 NCD 12/11 Q1025
LEMG - Malaga (civ/Mil), Spain
Distance from station: OSO 227km
Actualización: 24/10/2017 04:00
Parcialmente nuboso
Parcialmente nuboso
 Viento del O
Viento: O 7 km/h
Temperatura: 17°C
Rocío: 16°C
Humedad: 94%
Barómetro: 1023 hPa
Clouds: Parcialmente nuboso
Visibility: 10 km
Cloud details: Few Clouds 610 m
Parcialmente nuboso 1372 m
2017/10/24 02:00 LEMG 240200Z 28004KT 9999 FEW020 SCT045 17/16 Q1023 NOSIG
 
LEZL - Sevilla (civ/Mil, Spain
Distance from station: S 318km
Actualización: 24/10/2017 04:00
Despejado
Despejado
 Viento del ENE
Viento: ENE 17 km/h
Temperatura: 18°C
Rocío: 15°C
Humedad: 83%
Barómetro: 1021 hPa
Resumen: Despejado
Visibility: greater than 10 km
2017/10/24 02:00 LEZL 240200Z 06009KT CAVOK 18/15 Q1021 NOSIG
LEVT - Vitoria, Spain
Distance from station: NO 226km
Actualización: 24/10/2017 04:00
Despejado
Despejado
 Viento del calm
Viento: Calma
Temperatura: 3°C
Rocío: 3°C
Humedad: 100%
Barómetro: 1027 hPa
Resumen: Despejado
Visibility: greater than 10 km
2017/10/24 02:00 LEVT 240200Z 00000KT CAVOK 03/03 Q1027
 
LEBB - Bilbao/Sondica, Spain
Distance from station: NNO 235km
Actualización: 24/10/2017 04:00
Despejado
Despejado
 Viento del varies
Viento: varies 2 km/h
Temperatura: 9°C
Rocío: 8°C
Humedad: 94%
Barómetro: 1026 hPa
Clouds: Despejado
Visibility: 7 km
2017/10/24 02:00 LEBB 240200Z AUTO VRB01KT 7000 NCD 09/08 Q1026
LESO - San Sebastian/Fu, Spain
Distance from station: N 231km
Actualización: 24/10/2017 04:00
Despejado
Despejado
 Viento del varies
Viento: varies 2 km/h
Temperatura: 11°C
Rocío: 10°C
Humedad: 94%
Barómetro: 1026 hPa
Clouds: Despejado
Visibility: 10 km
2017/10/24 02:00 LESO 240200Z AUTO VRB01KT 9999 NCD 11/10 Q1026
 
LEVD - Valladolid(Mil/C, Spain
Distance from station: ONO 239km
Actualización: 23/10/2017 21:30
NOT Current
Despejado
Despejado
 Viento del NNE
Viento: NNE 7 km/h
Temperatura: 11°C
Rocío: 0°C
Humedad: 47%
Barómetro: 1027 hPa
Resumen: Despejado
Visibility: greater than 10 km
2017/10/23 19:30 LEVD 231930Z 03004KT CAVOK 11/M00 Q1027
LESA - Salamanca (civ/M, Spain
Distance from station: ONO 349km
Actualización: 23/10/2017 22:00
NOT Current
Despejado
Despejado
 Viento del calm
Viento: Calma
Temperatura: 10°C
Rocío: 0°C
Humedad: 50%
Barómetro: 1027 hPa
Resumen: Despejado
Visibility: greater than 10 km
2017/10/23 20:00 LESA 232000Z 00000KT CAVOK 10/00 Q1027
 
LEXJ - Santander/Paraya, Spain
Distance from station: NNO 247km
Actualización: 24/10/2017 04:00
Despejado
Despejado
 Viento del S
Viento: S 2 km/h
Temperatura: 10°C
Rocío: 9°C
Humedad: 94%
Barómetro: 1025 hPa
Clouds: Despejado
Visibility: 8 km
2017/10/24 02:00 LEXJ 240200Z AUTO 18001KT 8000 NCD 10/09 Q1025
LEAS - Asturias/Aviles, Spain
Distance from station: NO 214km
Actualización: 24/10/2017 04:00
Despejado
Despejado
 Viento del varies
Viento: varies 7 km/h
Temperatura: 12°C
Rocío: 8°C
Humedad: 77%
Barómetro: 1024 hPa
Clouds: Despejado
Visibility: 10 km
2017/10/24 02:00 LEAS 240200Z AUTO VRB04KT 9999 NCD 12/08 Q1024
 
LECO - La Coruna/Alvedr, Spain
Distance from station: ONO 222km
Actualización: 24/10/2017 04:00
Despejado
Despejado
 Viento del S
Viento: S 9 km/h
Temperatura: 8°C
Sensación frio: 6°C
Rocío: 8°C
Humedad: 100%
Barómetro: 1023 hPa
Clouds: Despejado
Visibility: 9 km
2017/10/24 02:00 LECO 240200Z AUTO 18005KT 9000 NCD 08/08 Q1023
LEVX - Vigo/Peinador, Spain
Distance from station: O 214km
Actualización: 24/10/2017 04:00
Despejado
Despejado
 Viento del SO
Viento: SO 9 km/h
Temperatura: 13°C
Rocío: 9°C
Humedad: 77%
Barómetro: 1023 hPa
Resumen: Despejado
Visibility: greater than 10 km
2017/10/24 02:00 LEVX 240200Z 22005KT CAVOK 13/09 Q1023 NOSIG